createdAt,value
2023-04-23T00:01:05.603Z,19.90
2023-04-23T00:06:10.242Z,21.00
2023-04-23T00:11:12.248Z,21.60
2023-04-23T00:16:14.815Z,21.50
2023-04-23T00:21:16.365Z,19.50
2023-04-23T00:26:18.548Z,21.10
2023-04-23T00:31:22.617Z,19.40
2023-04-23T00:36:24.421Z,19.90
2023-04-23T00:41:28.304Z,22.00
2023-04-23T00:46:30.100Z,19.30
2023-04-23T00:51:34.547Z,20.90
2023-04-23T00:56:36.657Z,23.50
2023-04-23T01:01:38.315Z,17.30
2023-04-23T01:06:41.377Z,17.70
2023-04-23T01:11:44.525Z,20.00
2023-04-23T01:16:47.127Z,17.90
2023-04-23T01:21:50.393Z,20.00
2023-04-23T01:26:52.827Z,23.30
2023-04-23T01:31:55.663Z,20.30
2023-04-23T01:36:58.660Z,18.00
2023-04-23T01:42:01.438Z,20.30
2023-04-23T01:47:05.680Z,19.60
2023-04-23T01:52:08.782Z,21.60
2023-04-23T01:57:10.809Z,18.00
2023-04-23T02:02:13.999Z,18.80
2023-04-23T02:07:15.640Z,21.60
2023-04-23T02:12:17.192Z,19.40
2023-04-23T02:17:21.653Z,20.10
2023-04-23T02:22:25.220Z,17.60
2023-04-23T02:27:26.868Z,20.90
2023-04-23T02:32:28.373Z,18.00
2023-04-23T02:37:29.891Z,18.50
2023-04-23T02:42:31.431Z,21.50
2023-04-23T02:47:33.012Z,20.40
2023-04-23T02:52:34.741Z,17.80
2023-04-23T02:57:37.099Z,18.10
2023-04-23T03:02:38.740Z,18.70
2023-04-23T03:07:40.739Z,23.00
2023-04-23T03:12:42.357Z,23.00
2023-04-23T03:17:43.899Z,19.80
2023-04-23T03:22:46.089Z,20.60
2023-04-23T03:27:47.601Z,17.90
2023-04-23T03:32:50.687Z,20.60
2023-04-23T03:37:52.817Z,16.50
2023-04-23T03:42:54.324Z,20.10
2023-04-23T03:47:55.950Z,19.20
2023-04-23T03:52:57.523Z,17.40
2023-04-23T03:58:01.721Z,19.20
2023-04-23T04:03:04.278Z,23.00
2023-04-23T04:08:06.293Z,20.80
2023-04-23T04:13:07.886Z,18.30
2023-04-23T04:18:09.879Z,18.10
2023-04-23T04:23:11.658Z,19.10
2023-04-23T04:28:13.164Z,19.20
2023-04-23T04:33:15.083Z,16.20
2023-04-23T04:38:16.551Z,15.90
2023-04-23T04:43:18.531Z,52.80
2023-04-23T04:48:20.713Z,34.40
2023-04-23T04:53:22.502Z,49.70
2023-04-23T04:58:24.069Z,53.10
2023-04-23T05:03:26.934Z,20.70
2023-04-23T05:08:28.678Z,25.70
2023-04-23T05:13:30.176Z,17.00
2023-04-23T05:18:31.649Z,18.70
2023-04-23T05:23:34.687Z,14.70
2023-04-23T05:28:36.359Z,15.10
2023-04-23T05:33:49.105Z,16.20
2023-04-23T05:38:52.685Z,17.70
2023-04-23T05:43:54.193Z,18.00
2023-04-23T05:48:55.761Z,29.50
2023-04-23T05:53:57.292Z,62.60
2023-04-23T05:58:58.866Z,26.00
2023-04-23T06:04:00.494Z,19.30
2023-04-23T06:09:02.484Z,16.40
2023-04-23T06:14:04.702Z,15.30
2023-04-23T06:19:06.656Z,14.30
2023-04-23T06:24:08.229Z,14.40
2023-04-23T06:29:09.756Z,17.80
2023-04-23T06:34:11.274Z,16.10
2023-04-23T06:39:12.792Z,15.00
2023-04-23T06:44:14.268Z,16.90
2023-04-23T06:49:16.046Z,15.30
2023-04-23T06:54:17.548Z,12.00
2023-04-23T06:59:19.723Z,16.20
2023-04-23T07:04:21.313Z,14.90
2023-04-23T07:09:23.344Z,13.80
2023-04-23T07:14:25.351Z,11.80
2023-04-23T07:19:27.609Z,14.60
2023-04-23T07:24:29.406Z,11.70
2023-04-23T07:29:31.003Z,9.30
2023-04-23T07:34:32.666Z,13.60
2023-04-23T07:39:34.521Z,9.90
2023-04-23T07:44:36.290Z,10.60
2023-04-23T07:49:37.798Z,10.90
2023-04-23T07:54:39.430Z,11.30
2023-04-23T07:59:41.186Z,8.80
2023-04-23T08:04:43.094Z,10.80
2023-04-23T08:09:45.309Z,9.30
2023-04-23T08:14:47.712Z,9.00
2023-04-23T08:19:49.443Z,12.40
2023-04-23T08:24:50.919Z,10.70
2023-04-23T08:29:52.392Z,8.40
2023-04-23T08:34:53.919Z,10.90
2023-04-23T08:39:55.419Z,9.80
2023-04-23T08:44:57.654Z,8.50
2023-04-23T08:49:59.862Z,8.40
2023-04-23T08:55:04.909Z,8.60
2023-04-23T09:00:08.760Z,8.80
2023-04-23T09:05:11.356Z,7.30
2023-04-23T09:10:17.740Z,8.20
2023-04-23T09:15:20.273Z,7.80
2023-04-23T09:20:21.778Z,6.20
2023-04-23T09:25:24.644Z,6.00
2023-04-23T09:35:39.078Z,6.20
2023-04-23T09:40:42.303Z,7.90
2023-04-23T09:45:50.373Z,8.10
2023-04-23T09:50:55.768Z,11.70
2023-04-23T09:55:57.292Z,6.10
2023-04-23T10:01:09.596Z,11.10
2023-04-23T10:06:30.501Z,6.10
2023-04-23T10:11:38.265Z,6.30
2023-04-23T10:16:48.593Z,6.20
2023-04-23T10:22:02.273Z,5.50
2023-04-23T10:27:23.961Z,6.90
2023-04-23T10:32:30.814Z,4.50
2023-04-23T10:37:33.488Z,4.90
2023-04-23T10:42:35.799Z,4.10
2023-04-23T10:47:37.876Z,7.30
2023-04-23T10:52:39.473Z,4.10
2023-04-23T10:58:01.665Z,13.40
2023-04-23T11:03:03.977Z,6.00
2023-04-23T11:08:18.834Z,9.00
2023-04-23T11:13:25.069Z,5.90
2023-04-23T11:18:27.555Z,9.10
2023-04-23T11:23:32.480Z,6.40
2023-04-23T11:28:36.653Z,7.20
2023-04-23T11:33:38.609Z,5.60
2023-04-23T11:38:40.090Z,5.50
2023-04-23T11:43:43.374Z,4.40
2023-04-23T11:48:44.908Z,5.70
2023-04-23T11:53:47.393Z,5.20
2023-04-23T11:58:58.849Z,5.40
2023-04-23T12:04:01.088Z,5.30
2023-04-23T12:09:03.592Z,6.20
2023-04-23T12:14:05.450Z,4.10
2023-04-23T12:19:21.357Z,7.50
2023-04-23T12:24:24.418Z,6.20
2023-04-23T12:29:26.889Z,4.40
2023-04-23T12:34:28.456Z,5.00
2023-04-23T12:39:35.027Z,5.10
2023-04-23T12:44:39.366Z,4.90
2023-04-23T12:49:43.208Z,5.40
2023-04-23T12:54:45.153Z,5.30
2023-04-23T12:59:46.624Z,5.90
2023-04-23T13:04:48.211Z,4.90
2023-04-23T13:09:49.693Z,6.60
2023-04-23T13:14:51.219Z,6.70
2023-04-23T13:19:57.246Z,6.70
2023-04-23T13:24:59.691Z,6.60
2023-04-23T13:35:05.051Z,3.90
2023-04-23T13:40:07.656Z,3.90
2023-04-23T13:50:11.681Z,6.90
2023-04-23T13:55:13.204Z,4.70
2023-04-23T14:00:16.038Z,4.60
2023-04-23T14:05:17.678Z,6.20
2023-04-23T14:10:19.273Z,6.40
2023-04-23T14:15:20.923Z,8.90
2023-04-23T14:20:22.816Z,6.70
2023-04-23T14:25:35.805Z,6.30
2023-04-23T14:30:41.016Z,4.40
2023-04-23T14:35:43.589Z,5.00
2023-04-23T14:40:45.512Z,9.10
2023-04-23T14:45:47.461Z,4.10
2023-04-23T14:50:49.078Z,5.00
2023-04-23T14:55:51.368Z,5.00
2023-04-23T15:00:53.226Z,8.50
2023-04-23T15:05:54.788Z,6.20
2023-04-23T15:10:56.268Z,6.30
2023-04-23T15:16:03.078Z,4.60
2023-04-23T15:21:04.602Z,7.40
2023-04-23T15:26:06.368Z,5.90
2023-04-23T15:31:09.216Z,7.70
2023-04-23T15:36:10.688Z,6.20
2023-04-23T15:41:14.843Z,7.10
2023-04-23T15:46:16.395Z,5.70
2023-04-23T15:51:18.039Z,5.70
2023-04-23T15:56:19.595Z,6.80
2023-04-23T16:01:21.548Z,5.10
2023-04-23T16:06:23.240Z,8.00
2023-04-23T16:11:27.734Z,8.20
2023-04-23T16:16:30.862Z,13.60
2023-04-23T16:21:32.788Z,6.50
2023-04-23T16:26:34.833Z,8.70
2023-04-23T16:31:36.923Z,5.80
2023-04-23T16:36:38.687Z,7.40
2023-04-23T16:41:40.416Z,8.20
2023-04-23T16:46:42.124Z,12.40
2023-04-23T16:51:43.689Z,7.50
2023-04-23T16:56:46.093Z,7.90
2023-04-23T17:06:49.324Z,10.50
2023-04-23T17:11:51.105Z,10.80
2023-04-23T17:16:52.594Z,15.10
2023-04-23T17:21:54.082Z,32.40
2023-04-23T17:26:56.885Z,71.90
2023-04-23T17:31:58.689Z,28.20
2023-04-23T17:37:00.285Z,15.50
2023-04-23T17:42:02.087Z,11.30
2023-04-23T17:47:03.648Z,13.50
2023-04-23T17:52:06.408Z,19.90
2023-04-23T17:57:09.834Z,19.70
2023-04-23T18:02:11.618Z,14.80
2023-04-23T18:07:13.470Z,17.20
2023-04-23T18:12:14.981Z,11.20
2023-04-23T18:17:17.520Z,14.40
2023-04-23T18:22:19.660Z,14.50
2023-04-23T18:27:21.128Z,22.50
2023-04-23T18:32:33.637Z,23.20
2023-04-23T18:37:59.325Z,20.40
2023-04-23T18:43:01.543Z,16.90
2023-04-23T18:48:23.372Z,12.30
2023-04-23T18:53:25.073Z,13.90
2023-04-23T18:58:27.277Z,12.30
2023-04-23T19:03:31.418Z,12.60
2023-04-23T19:13:35.628Z,12.90
2023-04-23T19:18:37.399Z,13.50
2023-04-23T19:23:39.048Z,12.10
2023-04-23T19:28:40.625Z,9.50
2023-04-23T19:33:45.402Z,11.20
2023-04-23T19:38:47.056Z,8.20
2023-04-23T19:43:48.541Z,9.10
2023-04-23T19:48:50.041Z,10.20
2023-04-23T19:53:54.101Z,8.40
2023-04-23T19:58:55.944Z,9.40
2023-04-23T20:03:57.613Z,9.30
2023-04-23T20:09:18.104Z,8.80
2023-04-23T20:19:21.682Z,11.30
2023-04-23T20:24:23.207Z,10.60
2023-04-23T20:29:24.881Z,12.70
2023-04-23T20:34:26.359Z,10.90
2023-04-23T20:39:28.046Z,10.50
2023-04-23T20:44:29.622Z,11.50
2023-04-23T20:49:32.266Z,10.40
2023-04-23T20:54:34.951Z,11.10
2023-04-23T20:59:36.604Z,11.40
2023-04-23T21:04:38.536Z,10.30
2023-04-23T21:09:54.104Z,11.70
2023-04-23T21:14:55.647Z,8.90
2023-04-23T21:19:57.202Z,9.30
2023-04-23T21:24:58.711Z,10.10
2023-04-23T21:30:18.027Z,12.00
2023-04-23T21:35:19.726Z,9.90
2023-04-23T21:40:21.238Z,11.20
2023-04-23T21:45:22.862Z,12.10
2023-04-23T21:50:25.637Z,8.70
2023-04-23T21:55:28.948Z,10.30
2023-04-23T22:00:30.489Z,10.80
2023-04-23T22:05:32.049Z,11.20
2023-04-23T22:10:34.040Z,10.50
2023-04-23T22:15:36.342Z,10.90
2023-04-23T22:20:39.135Z,11.50
2023-04-23T22:25:40.643Z,10.30
2023-04-23T22:30:42.563Z,11.40
2023-04-23T22:35:44.055Z,10.80
2023-04-23T22:40:45.569Z,12.80
2023-04-23T22:45:47.128Z,13.40
2023-04-23T22:50:51.155Z,11.80
2023-04-23T22:55:52.899Z,14.20
2023-04-23T23:00:55.552Z,14.40
2023-04-23T23:05:57.230Z,17.10
2023-04-23T23:10:58.768Z,12.70
2023-04-23T23:16:04.696Z,12.70
2023-04-23T23:21:06.535Z,11.10
2023-04-23T23:26:08.304Z,11.20
2023-04-23T23:31:10.146Z,8.90
2023-04-23T23:36:11.972Z,7.90
2023-04-23T23:41:13.448Z,11.40
2023-04-23T23:46:18.333Z,8.80
2023-04-23T23:51:20.275Z,8.70
2023-04-23T23:56:21.905Z,10.00
